createdAt,value
2018-12-24T00:00:52.483Z,1370
2018-12-24T00:04:14.622Z,1383
2018-12-24T00:07:36.827Z,1409
2018-12-24T00:10:59.015Z,1434
2018-12-24T00:14:21.166Z,1472
2018-12-24T00:17:43.371Z,1519
2018-12-24T00:21:05.427Z,1524
2018-12-24T00:24:27.690Z,1554
2018-12-24T00:27:49.863Z,1589
2018-12-24T00:31:12.052Z,1603
2018-12-24T00:34:34.229Z,1643
2018-12-24T00:37:56.310Z,1630
2018-12-24T00:44:40.778Z,1715
2018-12-24T00:48:02.952Z,1748
2018-12-24T00:51:25.080Z,1776
2018-12-24T00:58:09.354Z,1586
2018-12-24T01:01:33.039Z,1497
2018-12-24T01:04:53.791Z,1345
2018-12-24T01:08:15.979Z,1219
2018-12-24T01:15:00.306Z,1036
2018-12-24T01:21:44.697Z,940
2018-12-24T01:25:06.826Z,869
2018-12-24T01:28:28.961Z,825
2018-12-24T01:31:51.181Z,809
2018-12-24T01:35:13.382Z,773
2018-12-24T01:38:35.538Z,743
2018-12-24T01:41:57.714Z,728
2018-12-24T01:45:19.811Z,702
2018-12-24T01:48:42.121Z,699
2018-12-24T01:52:04.199Z,695
2018-12-24T01:55:26.455Z,675
2018-12-24T01:58:48.526Z,636
2018-12-24T02:02:10.795Z,613
2018-12-24T02:05:32.967Z,620
2018-12-24T02:08:55.138Z,602
2018-12-24T02:19:01.678Z,622
2018-12-24T02:22:26.016Z,620
2018-12-24T02:25:45.982Z,617
2018-12-24T02:29:08.103Z,596
2018-12-24T02:32:30.332Z,594
2018-12-24T02:35:52.450Z,595
2018-12-24T02:39:14.689Z,592
2018-12-24T02:42:36.894Z,579
2018-12-24T02:45:59.038Z,592
2018-12-24T02:49:21.177Z,587
2018-12-24T02:52:43.413Z,559
2018-12-24T02:56:05.502Z,583
2018-12-24T02:59:27.768Z,582
2018-12-24T03:02:50.004Z,548
2018-12-24T03:06:12.121Z,572
2018-12-24T03:09:34.294Z,582
2018-12-24T03:19:40.804Z,559
2018-12-24T03:23:02.975Z,568
2018-12-24T03:26:25.151Z,575
2018-12-24T03:29:47.308Z,598
2018-12-24T03:33:09.528Z,570
2018-12-24T03:36:31.596Z,571
2018-12-24T03:39:53.856Z,581
2018-12-24T03:43:16.015Z,561
2018-12-24T03:46:38.138Z,560
2018-12-24T03:50:00.405Z,591
2018-12-24T03:53:22.570Z,569
2018-12-24T03:56:44.684Z,583
2018-12-24T04:00:06.833Z,590
2018-12-24T04:06:51.253Z,606
2018-12-24T04:10:13.406Z,599
2018-12-24T04:13:35.604Z,583
2018-12-24T04:20:19.842Z,594
2018-12-24T04:23:42.109Z,586
2018-12-24T04:30:26.438Z,582
2018-12-24T04:33:48.658Z,562
2018-12-24T04:37:10.806Z,604
2018-12-24T04:40:32.908Z,593
2018-12-24T04:43:55.131Z,588
2018-12-24T04:47:17.356Z,590
2018-12-24T04:50:39.417Z,611
2018-12-24T04:54:01.666Z,601
2018-12-24T05:00:46.017Z,614
2018-12-24T05:04:08.193Z,628
2018-12-24T05:07:30.275Z,597
2018-12-24T05:10:52.458Z,588
2018-12-24T05:14:14.688Z,569
2018-12-24T05:17:36.896Z,593
2018-12-24T05:20:58.973Z,567
2018-12-24T05:24:21.158Z,591
2018-12-24T05:31:05.549Z,578
2018-12-24T05:34:27.767Z,582
2018-12-24T05:37:49.906Z,603
2018-12-24T05:41:12.079Z,587
2018-12-24T05:44:34.264Z,601
2018-12-24T05:47:56.353Z,582
2018-12-24T05:51:18.585Z,596
2018-12-24T05:54:40.700Z,593
2018-12-24T05:58:02.956Z,594
2018-12-24T06:01:25.044Z,609
2018-12-24T06:04:47.389Z,607
2018-12-24T06:11:31.671Z,586
2018-12-24T06:14:53.744Z,599
2018-12-24T06:18:15.993Z,609
2018-12-24T06:21:38.154Z,601
2018-12-24T06:25:00.254Z,592
2018-12-24T06:28:22.498Z,609
2018-12-24T06:31:44.696Z,602
2018-12-24T06:35:06.858Z,596
2018-12-24T06:41:51.213Z,599
2018-12-24T06:45:13.380Z,592
2018-12-24T06:48:35.474Z,587
2018-12-24T06:51:57.655Z,587
2018-12-24T06:55:19.821Z,592
2018-12-24T06:58:41.985Z,579
2018-12-24T07:02:05.431Z,587
2018-12-24T07:12:10.703Z,597
2018-12-24T07:15:32.875Z,603
2018-12-24T07:22:17.285Z,623
2018-12-24T07:25:39.524Z,642
2018-12-24T07:29:01.563Z,647
2018-12-24T07:35:45.917Z,648
2018-12-24T07:39:08.196Z,665
2018-12-24T07:42:30.360Z,653
2018-12-24T07:49:14.679Z,650
2018-12-24T07:52:36.849Z,659
2018-12-24T07:59:21.144Z,632
2018-12-24T08:02:43.287Z,619
2018-12-24T08:06:05.534Z,616
2018-12-24T08:16:12.597Z,597
2018-12-24T08:22:56.395Z,648
2018-12-24T08:26:18.596Z,620
2018-12-24T08:33:02.840Z,609
2018-12-24T08:36:25.022Z,606
2018-12-24T08:39:47.275Z,696
2018-12-24T08:43:09.417Z,776
2018-12-24T08:46:31.538Z,784
2018-12-24T08:49:53.779Z,762
2018-12-24T08:53:15.986Z,757
2018-12-24T08:56:38.123Z,753
2018-12-24T09:00:00.258Z,751
2018-12-24T09:03:22.467Z,752
2018-12-24T09:06:44.660Z,747
2018-12-24T09:10:06.818Z,766
2018-12-24T09:13:28.998Z,776
2018-12-24T09:16:51.170Z,785
2018-12-24T09:20:13.261Z,794
2018-12-24T09:23:35.519Z,738
2018-12-24T09:26:57.678Z,706
2018-12-24T09:30:19.848Z,698
2018-12-24T09:33:42.040Z,632
2018-12-24T09:37:04.134Z,614
2018-12-24T09:40:26.326Z,610
2018-12-24T09:43:48.556Z,589
2018-12-24T09:47:10.738Z,570
2018-12-24T09:50:32.888Z,549
2018-12-24T09:53:55.071Z,544
2018-12-24T09:57:17.237Z,552
2018-12-24T10:00:39.488Z,559
2018-12-24T10:04:01.628Z,556
2018-12-24T10:07:23.693Z,553
2018-12-24T10:10:45.930Z,550
2018-12-24T10:14:08.128Z,560
2018-12-24T10:17:30.286Z,554
2018-12-24T10:20:52.461Z,555
2018-12-24T10:24:14.617Z,546
2018-12-24T10:27:36.727Z,543
2018-12-24T10:30:59.045Z,538
2018-12-24T10:34:21.140Z,534
2018-12-24T10:37:43.318Z,527
2018-12-24T10:41:05.495Z,532
2018-12-24T10:44:27.678Z,531
2018-12-24T10:47:49.857Z,534
2018-12-24T10:51:11.934Z,536
2018-12-24T10:54:34.195Z,535
2018-12-24T10:57:56.373Z,535
2018-12-24T11:01:18.528Z,533
2018-12-24T11:04:40.719Z,553
2018-12-24T11:08:02.874Z,574
2018-12-24T11:11:25.020Z,569
2018-12-24T11:14:47.256Z,586
2018-12-24T11:18:09.416Z,578
2018-12-24T11:21:31.591Z,557
2018-12-24T11:24:53.664Z,562
2018-12-24T11:28:15.929Z,575
2018-12-24T11:31:38.101Z,565
2018-12-24T11:35:00.193Z,566
2018-12-24T11:38:22.445Z,573
2018-12-24T11:41:44.571Z,634
2018-12-24T11:45:06.719Z,576
2018-12-24T11:48:28.896Z,569
2018-12-24T11:51:51.140Z,560
2018-12-24T11:55:13.345Z,557
2018-12-24T11:58:35.486Z,556
2018-12-24T12:01:57.760Z,562
2018-12-24T12:05:19.838Z,556
2018-12-24T12:08:41.922Z,550
2018-12-24T12:12:04.200Z,547
2018-12-24T12:15:26.275Z,545
2018-12-24T12:18:48.532Z,543
2018-12-24T12:22:10.624Z,549
2018-12-24T12:25:32.800Z,545
2018-12-24T12:28:55.046Z,535
2018-12-24T12:32:17.331Z,535
2018-12-24T12:35:39.424Z,541
2018-12-24T12:39:01.575Z,532
2018-12-24T12:42:23.743Z,528
2018-12-24T12:45:45.856Z,543
2018-12-24T12:49:08.087Z,560
2018-12-24T12:52:30.265Z,565
2018-12-24T12:55:52.508Z,563
2018-12-24T12:59:14.604Z,557
2018-12-24T13:02:36.701Z,547
2018-12-24T13:05:59.000Z,557
2018-12-24T13:09:21.126Z,552
2018-12-24T13:12:43.235Z,552
2018-12-24T13:16:05.490Z,546
2018-12-24T13:19:27.616Z,554
2018-12-24T13:22:49.751Z,550
2018-12-24T13:26:11.928Z,544
2018-12-24T13:29:34.198Z,543
2018-12-24T13:32:56.297Z,545
2018-12-24T13:36:18.528Z,548
2018-12-24T13:39:40.690Z,555
2018-12-24T13:43:02.791Z,558
2018-12-24T13:46:24.981Z,556
2018-12-24T13:49:47.227Z,551
2018-12-24T13:53:09.324Z,554
2018-12-24T13:56:31.583Z,551
2018-12-24T13:59:53.759Z,557
2018-12-24T14:03:15.848Z,550
2018-12-24T14:06:38.102Z,555
2018-12-24T14:10:00.269Z,555
2018-12-24T14:13:22.522Z,546
2018-12-24T14:16:44.648Z,551
2018-12-24T14:20:06.813Z,554
2018-12-24T14:23:28.985Z,556
2018-12-24T14:26:51.068Z,554
2018-12-24T14:30:13.248Z,569
2018-12-24T14:33:35.506Z,564
2018-12-24T14:36:57.683Z,575
2018-12-24T14:40:21.607Z,580
2018-12-24T14:43:42.023Z,596
2018-12-24T14:47:04.212Z,608
2018-12-24T14:50:26.377Z,608
2018-12-24T14:53:48.572Z,616
2018-12-24T14:57:10.720Z,624
2018-12-24T15:00:35.061Z,639
2018-12-24T15:03:55.071Z,650
2018-12-24T15:07:17.246Z,647
2018-12-24T15:10:39.421Z,664
2018-12-24T15:14:01.601Z,670
2018-12-24T15:17:23.774Z,685
2018-12-24T15:20:45.935Z,693
2018-12-24T15:24:08.140Z,729
2018-12-24T15:27:30.291Z,763
2018-12-24T15:30:52.689Z,768
2018-12-24T15:34:14.659Z,787
2018-12-24T15:37:36.811Z,785
2018-12-24T15:40:59.025Z,799
2018-12-24T15:44:21.272Z,795
2018-12-24T15:47:43.339Z,804
2018-12-24T15:51:05.527Z,800
2018-12-24T15:54:27.725Z,791
2018-12-24T15:57:49.865Z,804
2018-12-24T16:01:12.068Z,811
2018-12-24T16:04:34.243Z,813
2018-12-24T16:07:56.396Z,814
2018-12-24T16:11:18.567Z,826
2018-12-24T16:14:40.767Z,833
2018-12-24T16:18:02.940Z,850
2018-12-24T16:21:25.020Z,862
2018-12-24T16:24:47.258Z,863
2018-12-24T16:28:09.358Z,870
2018-12-24T16:31:32.752Z,881
2018-12-24T16:34:53.847Z,900
2018-12-24T16:38:15.888Z,914
2018-12-24T16:41:38.162Z,919
2018-12-24T16:45:00.309Z,923
2018-12-24T16:48:22.534Z,939
2018-12-24T16:51:44.686Z,940
2018-12-24T16:55:06.760Z,965
2018-12-24T16:58:28.936Z,984
2018-12-24T17:01:51.119Z,970
2018-12-24T17:05:13.291Z,979
2018-12-24T17:08:35.545Z,970
2018-12-24T17:11:57.710Z,956
2018-12-24T17:15:19.900Z,945
2018-12-24T17:18:42.052Z,939
2018-12-24T17:22:04.245Z,920
2018-12-24T17:25:26.333Z,913
2018-12-24T17:28:48.589Z,908
2018-12-24T17:32:10.813Z,919
2018-12-24T17:35:32.864Z,910
2018-12-24T17:38:55.102Z,910
2018-12-24T17:42:17.282Z,909
2018-12-24T17:45:39.386Z,912
2018-12-24T17:49:01.641Z,901
2018-12-24T17:52:23.730Z,898
2018-12-24T17:55:45.911Z,900
2018-12-24T17:59:08.090Z,897
2018-12-24T18:02:30.328Z,918
2018-12-24T18:05:52.508Z,912
2018-12-24T18:09:14.784Z,926
2018-12-24T18:12:36.872Z,929
2018-12-24T18:15:59.042Z,938
2018-12-24T18:19:21.270Z,967
2018-12-24T18:22:43.381Z,977
2018-12-24T18:26:05.572Z,959
2018-12-24T18:29:27.691Z,955
2018-12-24T18:32:49.909Z,952
2018-12-24T18:36:12.133Z,954
2018-12-24T18:39:34.277Z,955
2018-12-24T18:42:56.370Z,960
2018-12-24T18:46:18.622Z,958
2018-12-24T18:49:40.939Z,964
2018-12-24T18:53:02.961Z,987
2018-12-24T18:56:25.171Z,987
2018-12-24T18:59:47.352Z,976
2018-12-24T19:03:09.487Z,978
2018-12-24T19:06:31.587Z,976
2018-12-24T19:09:53.783Z,963
2018-12-24T19:13:16.010Z,945
2018-12-24T19:16:38.196Z,941
2018-12-24T19:20:00.361Z,939
2018-12-24T19:23:22.560Z,943
2018-12-24T19:26:44.669Z,943
2018-12-24T19:30:06.861Z,943
2018-12-24T19:33:29.084Z,955
2018-12-24T19:36:51.255Z,963
2018-12-24T19:40:13.414Z,974
2018-12-24T19:43:35.608Z,972
2018-12-24T19:46:57.780Z,976
2018-12-24T19:50:19.948Z,989
2018-12-24T19:53:42.115Z,1000
2018-12-24T19:57:04.320Z,1007
2018-12-24T20:00:26.479Z,1015
2018-12-24T20:03:48.669Z,1024
2018-12-24T20:07:10.750Z,1032
2018-12-24T20:10:32.931Z,1047
2018-12-24T20:13:55.107Z,1072
2018-12-24T20:17:17.365Z,1086
2018-12-24T20:20:39.534Z,1090
2018-12-24T20:24:01.627Z,1094
2018-12-24T20:27:23.872Z,1138
2018-12-24T20:30:45.983Z,1089
2018-12-24T20:34:08.174Z,1090
2018-12-24T20:37:30.336Z,1071
2018-12-24T20:40:52.504Z,1055
2018-12-24T20:44:14.768Z,1048
2018-12-24T20:47:36.935Z,1041
2018-12-24T20:50:59.168Z,1031
2018-12-24T20:54:21.289Z,1022
2018-12-24T20:57:43.399Z,1004
2018-12-24T21:01:05.567Z,972
2018-12-24T21:04:27.799Z,954
2018-12-24T21:07:49.912Z,941
2018-12-24T21:11:12.145Z,910
2018-12-24T21:14:34.342Z,916
2018-12-24T21:17:56.521Z,950
2018-12-24T21:21:18.670Z,911
2018-12-24T21:24:40.867Z,821
2018-12-24T21:28:03.056Z,673
2018-12-24T21:31:25.214Z,559
2018-12-24T21:34:47.393Z,549
2018-12-24T21:38:09.578Z,537
2018-12-24T21:41:31.750Z,534
2018-12-24T21:44:53.824Z,535
2018-12-24T21:48:16.107Z,540
2018-12-24T21:51:38.247Z,525
2018-12-24T21:55:00.489Z,542
2018-12-24T21:58:22.619Z,568
2018-12-24T22:01:44.705Z,502
2018-12-24T22:05:06.874Z,609
2018-12-24T22:08:29.165Z,671
2018-12-24T22:11:51.242Z,686
2018-12-24T22:15:13.468Z,710
2018-12-24T22:21:57.849Z,800
2018-12-24T22:25:20.062Z,833
2018-12-24T22:28:42.189Z,866
2018-12-24T22:32:04.358Z,886
2018-12-24T22:35:26.477Z,918
2018-12-24T22:42:10.798Z,968
2018-12-24T22:45:33.043Z,998
2018-12-24T22:48:55.164Z,1014
2018-12-24T22:52:17.423Z,1042
2018-12-24T22:55:39.569Z,1054
2018-12-24T22:59:01.760Z,1089
2018-12-24T23:02:26.011Z,1122
2018-12-24T23:05:46.010Z,1134
2018-12-24T23:09:08.205Z,1153
2018-12-24T23:12:30.431Z,1174
2018-12-24T23:15:52.650Z,1204
2018-12-24T23:19:14.796Z,1222
2018-12-24T23:22:36.868Z,1243
2018-12-24T23:25:59.056Z,1253
2018-12-24T23:29:21.305Z,1284
2018-12-24T23:32:43.460Z,1293
2018-12-24T23:36:05.653Z,1307
2018-12-24T23:39:27.834Z,1331
2018-12-24T23:42:50.092Z,1363
2018-12-24T23:46:12.200Z,1382
2018-12-24T23:49:34.504Z,1406
2018-12-24T23:52:56.501Z,1424
2018-12-24T23:56:18.690Z,1442
2018-12-24T23:59:40.788Z,1440
